createdAt,value
2019-04-10T00:00:35.070Z,0.00
2019-04-10T00:01:34.659Z,0.00
2019-04-10T00:02:34.648Z,0.00
2019-04-10T00:03:37.953Z,0.00
2019-04-10T00:04:35.621Z,0.00
2019-04-10T00:05:34.614Z,0.00
2019-04-10T00:06:34.620Z,0.00
2019-04-10T00:07:34.593Z,0.00
2019-04-10T00:08:34.592Z,0.00
2019-04-10T00:09:34.964Z,0.00
2019-04-10T00:10:34.564Z,0.00
2019-04-10T00:11:34.639Z,0.00
2019-04-10T00:12:34.547Z,0.00
2019-04-10T00:13:34.530Z,0.00
2019-04-10T00:14:34.592Z,0.00
2019-04-10T00:15:34.747Z,0.00
2019-04-10T00:16:34.493Z,0.00
2019-04-10T00:17:35.388Z,0.00
2019-04-10T00:18:34.474Z,0.00
2019-04-10T00:19:35.719Z,0.00
2019-04-10T00:20:34.459Z,0.00
2019-04-10T00:21:35.478Z,0.00
2019-04-10T00:22:34.456Z,0.00
2019-04-10T00:23:35.275Z,0.00
2019-04-10T00:24:34.432Z,0.00
2019-04-10T00:25:34.979Z,0.00
2019-04-10T00:26:34.391Z,0.00
2019-04-10T00:27:34.670Z,0.00
2019-04-10T00:28:34.364Z,0.00
2019-04-10T00:29:34.392Z,0.00
2019-04-10T00:30:35.215Z,0.00
2019-04-10T00:31:34.336Z,0.00
2019-04-10T00:32:34.329Z,0.00
2019-04-10T00:33:34.673Z,0.00
2019-04-10T00:34:34.307Z,0.00
2019-04-10T00:35:35.188Z,0.00
2019-04-10T00:36:35.197Z,0.00
2019-04-10T00:37:35.197Z,0.00
2019-04-10T00:38:34.258Z,0.00
2019-04-10T00:39:34.883Z,0.00
2019-04-10T00:40:35.085Z,0.00
2019-04-10T00:41:34.426Z,0.00
2019-04-10T00:42:34.858Z,0.00
2019-04-10T00:43:35.014Z,0.00
2019-04-10T00:44:34.198Z,0.00
2019-04-10T00:45:34.211Z,0.00
2019-04-10T00:46:34.662Z,0.00
2019-04-10T00:47:35.109Z,0.00
2019-04-10T00:48:34.253Z,0.00
2019-04-10T00:49:34.141Z,0.00
2019-04-10T00:50:34.775Z,0.00
2019-04-10T00:51:35.170Z,0.00
2019-04-10T00:52:34.479Z,0.00
2019-04-10T00:53:34.920Z,0.00
2019-04-10T00:54:34.904Z,0.00
2019-04-10T00:55:34.078Z,0.00
2019-04-10T00:56:34.794Z,0.00
2019-04-10T00:57:34.071Z,0.00
2019-04-10T00:58:34.044Z,0.00
2019-04-10T00:59:34.472Z,0.00
2019-04-10T01:00:36.447Z,0.00
2019-04-10T01:01:34.091Z,0.00
2019-04-10T01:02:34.525Z,0.00
2019-04-10T01:03:33.985Z,0.00
2019-04-10T01:04:34.177Z,0.00
2019-04-10T01:05:33.972Z,0.00
2019-04-10T01:06:33.957Z,0.00
2019-04-10T01:07:39.748Z,0.00
2019-04-10T01:08:34.947Z,0.00
2019-04-10T01:09:33.927Z,0.00
2019-04-10T01:10:34.585Z,0.00
2019-04-10T01:11:34.893Z,0.00
2019-04-10T01:12:34.231Z,0.00
2019-04-10T01:13:34.653Z,0.00
2019-04-10T01:14:33.990Z,0.00
2019-04-10T01:15:34.437Z,0.00
2019-04-10T01:16:33.851Z,0.00
2019-04-10T01:17:34.686Z,0.00
2019-04-10T01:18:33.827Z,0.00
2019-04-10T01:19:34.362Z,0.00
2019-04-10T01:20:33.807Z,0.00
2019-04-10T01:21:34.627Z,0.00
2019-04-10T01:22:33.789Z,0.00
2019-04-10T01:23:33.795Z,0.00
2019-04-10T01:24:33.780Z,0.00
2019-04-10T01:25:34.617Z,0.00
2019-04-10T01:26:33.739Z,0.00
2019-04-10T01:27:34.115Z,0.00
2019-04-10T01:28:33.722Z,0.00
2019-04-10T01:29:33.707Z,0.00
2019-04-10T01:30:34.726Z,0.00
2019-04-10T01:31:33.684Z,0.00
2019-04-10T01:32:34.212Z,0.00
2019-04-10T01:33:33.665Z,0.00
2019-04-10T01:34:33.768Z,0.00
2019-04-10T01:35:34.234Z,0.00
2019-04-10T01:36:33.652Z,0.00
2019-04-10T01:37:46.658Z,0.00
2019-04-10T01:38:35.577Z,0.00
2019-04-10T01:39:34.649Z,0.00
2019-04-10T01:40:33.596Z,0.00
2019-04-10T01:41:34.239Z,0.00
2019-04-10T01:42:33.595Z,0.00
2019-04-10T01:43:33.561Z,0.00
2019-04-10T01:44:33.545Z,0.00
2019-04-10T01:45:33.534Z,0.00
2019-04-10T01:46:35.746Z,0.00
2019-04-10T01:47:33.519Z,0.00
2019-04-10T01:48:34.523Z,0.00
2019-04-10T01:49:33.636Z,0.00
2019-04-10T01:50:33.482Z,0.00
2019-04-10T01:51:33.489Z,0.00
2019-04-10T01:52:33.467Z,0.00
2019-04-10T01:53:33.581Z,0.00
2019-04-10T01:54:33.472Z,0.00
2019-04-10T01:55:34.255Z,0.00
2019-04-10T01:56:35.147Z,0.00
2019-04-10T01:57:34.562Z,0.00
2019-04-10T01:58:33.401Z,0.00
2019-04-10T01:59:34.059Z,0.00
2019-04-10T02:00:33.398Z,0.00
2019-04-10T02:01:34.582Z,0.00
2019-04-10T02:02:33.624Z,0.00
2019-04-10T02:03:34.071Z,0.00
2019-04-10T02:04:33.339Z,0.00
2019-04-10T02:05:33.569Z,0.00
2019-04-10T02:06:33.670Z,0.00
2019-04-10T02:07:34.080Z,0.00
2019-04-10T02:08:34.101Z,0.00
2019-04-10T02:09:33.283Z,0.00
2019-04-10T02:10:34.246Z,0.00
2019-04-10T02:11:34.197Z,0.00
2019-04-10T02:12:33.255Z,0.00
2019-04-10T02:13:33.851Z,0.00
2019-04-10T02:14:33.232Z,0.00
2019-04-10T02:15:34.225Z,0.00
2019-04-10T02:16:33.206Z,0.00
2019-04-10T02:17:33.219Z,0.00
2019-04-10T02:18:33.221Z,0.00
2019-04-10T02:19:33.181Z,0.00
2019-04-10T02:20:33.180Z,0.00
2019-04-10T02:21:34.007Z,0.00
2019-04-10T02:22:33.168Z,0.00
2019-04-10T02:23:33.136Z,0.00
2019-04-10T02:24:33.393Z,0.00
2019-04-10T02:25:33.117Z,0.00
2019-04-10T02:26:33.853Z,0.00
2019-04-10T02:27:34.249Z,0.00
2019-04-10T02:28:33.393Z,0.00
2019-04-10T02:29:33.564Z,0.00
2019-04-10T02:30:34.664Z,0.00
2019-04-10T02:31:34.302Z,0.00
2019-04-10T02:32:34.392Z,0.00
2019-04-10T02:33:33.600Z,0.00
2019-04-10T02:34:33.020Z,0.00
2019-04-10T02:35:34.059Z,0.00
2019-04-10T02:36:34.462Z,0.00
2019-04-10T02:37:33.263Z,0.00
2019-04-10T02:38:49.167Z,0.00
2019-04-10T02:39:40.148Z,0.00
2019-04-10T02:40:33.956Z,0.00
2019-04-10T02:41:34.474Z,0.00
2019-04-10T02:42:34.345Z,0.00
2019-04-10T02:43:33.663Z,0.00
2019-04-10T02:44:33.165Z,0.00
2019-04-10T02:45:34.232Z,0.00
2019-04-10T02:46:33.207Z,0.00
2019-04-10T02:47:32.886Z,0.00
2019-04-10T02:48:33.803Z,0.00
2019-04-10T02:49:32.861Z,0.00
2019-04-10T02:50:33.298Z,0.00
2019-04-10T02:51:32.842Z,0.00
2019-04-10T02:52:33.071Z,0.00
2019-04-10T02:53:32.818Z,0.00
2019-04-10T02:54:33.575Z,0.00
2019-04-10T02:55:33.417Z,0.00
2019-04-10T02:56:32.792Z,0.00
2019-04-10T02:57:34.802Z,0.00
2019-04-10T02:58:34.324Z,0.00
2019-04-10T02:59:33.532Z,0.00
2019-04-10T03:00:33.809Z,0.00
2019-04-10T03:01:33.503Z,0.00
2019-04-10T03:02:33.531Z,0.00
2019-04-10T03:03:34.165Z,0.00
2019-04-10T03:04:33.105Z,0.00
2019-04-10T03:05:34.452Z,0.00
2019-04-10T03:06:33.581Z,0.00
2019-04-10T03:07:33.795Z,0.00
2019-04-10T03:08:46.799Z,0.00
2019-04-10T03:09:49.494Z,0.00
2019-04-10T03:10:40.770Z,0.00
2019-04-10T03:11:35.176Z,0.00
2019-04-10T03:12:33.996Z,0.00
2019-04-10T03:13:33.740Z,0.00
2019-04-10T03:14:32.802Z,0.00
2019-04-10T03:15:33.838Z,0.00
2019-04-10T03:16:32.577Z,0.00
2019-04-10T03:17:33.272Z,0.00
2019-04-10T03:18:32.733Z,0.00
2019-04-10T03:19:32.547Z,0.00
2019-04-10T03:20:32.531Z,0.00
2019-04-10T03:21:33.308Z,0.00
2019-04-10T03:22:32.591Z,0.00
2019-04-10T03:23:33.444Z,0.00
2019-04-10T03:24:32.484Z,0.00
2019-04-10T03:25:33.023Z,0.00
2019-04-10T03:26:32.467Z,0.00
2019-04-10T03:27:32.453Z,0.00
2019-04-10T03:28:33.449Z,0.00
2019-04-10T03:29:32.453Z,0.00
2019-04-10T03:30:34.236Z,0.00
2019-04-10T03:31:34.234Z,0.00
2019-04-10T03:32:36.424Z,0.00
2019-04-10T03:33:36.053Z,0.00
2019-04-10T03:34:37.789Z,0.00
2019-04-10T03:35:34.538Z,0.00
2019-04-10T03:36:32.363Z,0.00
2019-04-10T03:37:32.351Z,0.00
2019-04-10T03:38:32.336Z,0.00
2019-04-10T03:39:34.799Z,0.00
2019-04-10T03:40:32.324Z,0.00
2019-04-10T03:41:33.177Z,0.00
2019-04-10T03:42:32.849Z,0.00
2019-04-10T03:43:32.288Z,0.00
2019-04-10T03:44:32.574Z,0.00
2019-04-10T03:45:32.755Z,0.00
2019-04-10T03:46:33.203Z,0.00
2019-04-10T03:47:33.411Z,0.00
2019-04-10T03:48:33.356Z,0.00
2019-04-10T03:49:32.230Z,0.00
2019-04-10T03:50:32.217Z,0.00
2019-04-10T03:51:32.465Z,0.00
2019-04-10T03:52:32.186Z,0.00
2019-04-10T03:53:32.194Z,0.00
2019-04-10T03:54:32.265Z,0.00
2019-04-10T03:55:32.717Z,0.00
2019-04-10T03:56:32.142Z,0.00
2019-04-10T03:57:32.135Z,0.00
2019-04-10T03:58:32.124Z,0.00
2019-04-10T03:59:32.642Z,0.00
2019-04-10T04:00:32.175Z,0.00
2019-04-10T04:01:33.158Z,0.00
2019-04-10T04:02:32.084Z,0.00
2019-04-10T04:03:32.952Z,0.00
2019-04-10T04:04:32.058Z,0.00
2019-04-10T04:05:32.833Z,0.00
2019-04-10T04:06:32.064Z,0.00
2019-04-10T04:07:32.651Z,0.00
2019-04-10T04:08:32.072Z,0.00
2019-04-10T04:09:32.009Z,0.00
2019-04-10T04:10:32.865Z,0.00
2019-04-10T04:11:31.983Z,0.00
2019-04-10T04:12:32.837Z,0.00
2019-04-10T04:13:31.969Z,4.00
2019-04-10T04:14:32.604Z,4.00
2019-04-10T04:15:31.947Z,0.00
2019-04-10T04:16:31.930Z,4.00
2019-04-10T04:17:32.529Z,4.00
2019-04-10T04:18:31.913Z,4.00
2019-04-10T04:19:32.441Z,4.00
2019-04-10T04:20:31.918Z,8.00
2019-04-10T04:21:32.080Z,8.00
2019-04-10T04:22:32.672Z,8.00
2019-04-10T04:23:31.959Z,12.00
2019-04-10T04:24:31.845Z,8.00
2019-04-10T04:25:32.480Z,12.00
2019-04-10T04:26:31.830Z,16.00
2019-04-10T04:27:31.819Z,20.00
2019-04-10T04:28:32.050Z,24.00
2019-04-10T04:29:32.490Z,28.00
2019-04-10T04:30:32.097Z,32.00
2019-04-10T04:31:31.792Z,36.00
2019-04-10T04:32:31.766Z,40.00
2019-04-10T04:33:31.986Z,48.00
2019-04-10T04:34:31.762Z,56.00
2019-04-10T04:35:31.736Z,64.00
2019-04-10T04:36:31.734Z,76.00
2019-04-10T04:37:31.709Z,84.00
2019-04-10T04:38:32.302Z,100.00
2019-04-10T04:39:32.899Z,108.00
2019-04-10T04:40:31.685Z,124.00
2019-04-10T04:41:31.694Z,140.00
2019-04-10T04:42:31.913Z,156.00
2019-04-10T04:43:32.693Z,172.00
2019-04-10T04:44:31.642Z,192.00
2019-04-10T04:45:31.637Z,208.00
2019-04-10T04:46:32.414Z,236.00
2019-04-10T04:47:31.627Z,256.00
2019-04-10T04:48:31.857Z,280.00
2019-04-10T04:49:31.582Z,304.00
2019-04-10T04:50:31.571Z,332.00
2019-04-10T04:51:31.585Z,360.00
2019-04-10T04:52:32.685Z,384.00
2019-04-10T04:53:32.238Z,416.00
2019-04-10T04:54:31.533Z,448.00
2019-04-10T04:55:31.522Z,480.00
2019-04-10T04:56:31.764Z,516.00
2019-04-10T04:57:34.185Z,544.00
2019-04-10T04:58:31.506Z,580.00
2019-04-10T04:59:32.446Z,616.00
2019-04-10T05:00:32.005Z,652.00
2019-04-10T05:01:31.820Z,688.00
2019-04-10T05:02:32.342Z,728.00
2019-04-10T05:03:31.431Z,764.00
2019-04-10T05:04:32.407Z,804.00
2019-04-10T05:05:31.427Z,848.00
2019-04-10T05:06:31.421Z,888.00
2019-04-10T05:07:31.395Z,928.00
2019-04-10T05:08:32.303Z,968.00
2019-04-10T05:09:36.905Z,1008.00
2019-04-10T05:10:33.490Z,1052.00
2019-04-10T05:11:31.364Z,1092.00
2019-04-10T05:12:31.840Z,1136.00
2019-04-10T05:13:31.757Z,1176.00
2019-04-10T05:14:31.515Z,1216.00
2019-04-10T05:15:31.303Z,1256.00
2019-04-10T05:16:31.300Z,1304.00
2019-04-10T05:17:31.287Z,1344.00
2019-04-10T05:18:31.731Z,1392.00
2019-04-10T05:19:31.268Z,1436.00
2019-04-10T05:20:42.216Z,1488.00
2019-04-10T05:21:32.849Z,1532.00
2019-04-10T05:22:31.807Z,1572.00
2019-04-10T05:23:31.234Z,1608.00
2019-04-10T05:24:32.028Z,1652.00
2019-04-10T05:25:31.614Z,1692.00
2019-04-10T05:26:32.262Z,1736.00
2019-04-10T05:27:31.228Z,1780.00
2019-04-10T05:28:31.164Z,1820.00
2019-04-10T05:29:31.383Z,1868.00
2019-04-10T05:30:31.425Z,1916.00
2019-04-10T05:31:32.169Z,1960.00
2019-04-10T05:32:31.145Z,2004.00
2019-04-10T05:33:31.152Z,2060.00
2019-04-10T05:34:31.104Z,2108.00
2019-04-10T05:35:31.983Z,2164.00
2019-04-10T05:36:31.398Z,2212.00
2019-04-10T05:37:31.631Z,2252.00
2019-04-10T05:38:31.069Z,2288.00
2019-04-10T05:39:42.292Z,2328.00
2019-04-10T05:40:33.054Z,2364.00
2019-04-10T05:41:31.438Z,2400.00
2019-04-10T05:42:31.080Z,2436.00
2019-04-10T05:43:31.009Z,2472.00
2019-04-10T05:44:31.882Z,2504.00
2019-04-10T05:45:31.844Z,2548.00
2019-04-10T05:46:30.973Z,2580.00
2019-04-10T05:47:30.992Z,2616.00
2019-04-10T05:48:31.525Z,2652.00
2019-04-10T05:49:31.130Z,2692.00
2019-04-10T05:50:32.034Z,2720.00
2019-04-10T05:51:30.966Z,2748.00
2019-04-10T05:52:30.995Z,2776.00
2019-04-10T05:53:30.898Z,2808.00
2019-04-10T05:54:31.186Z,2844.00
2019-04-10T05:55:31.017Z,2884.00
2019-04-10T05:56:31.083Z,2916.00
2019-04-10T05:57:30.894Z,2964.00
2019-04-10T05:58:31.485Z,3012.00
2019-04-10T05:59:30.841Z,3072.00
2019-04-10T06:00:30.827Z,3124.00
2019-04-10T06:01:35.827Z,3160.00
2019-04-10T06:02:32.139Z,3184.00
2019-04-10T06:03:30.797Z,3224.00
2019-04-10T06:04:31.575Z,3272.00
2019-04-10T06:05:31.978Z,3320.00
2019-04-10T06:06:30.762Z,3348.00
2019-04-10T06:07:30.758Z,3384.00
2019-04-10T06:08:31.146Z,3400.00
2019-04-10T06:09:31.140Z,3412.00
2019-04-10T06:10:30.735Z,3436.00
2019-04-10T06:11:31.039Z,3476.00
2019-04-10T06:12:30.700Z,3508.00
2019-04-10T06:13:30.687Z,3536.00
2019-04-10T06:14:30.680Z,3540.00
2019-04-10T06:15:30.841Z,3548.00
2019-04-10T06:16:30.658Z,3552.00
2019-04-10T06:17:30.678Z,3552.00
2019-04-10T06:18:31.319Z,3564.00
2019-04-10T06:19:30.640Z,3580.00
2019-04-10T06:20:31.381Z,3588.00
2019-04-10T06:21:31.403Z,3600.00
2019-04-10T06:22:30.597Z,3608.00
2019-04-10T06:23:31.490Z,3624.00
2019-04-10T06:24:30.572Z,3656.00
2019-04-10T06:25:31.724Z,3692.00
2019-04-10T06:26:32.334Z,3736.00
2019-04-10T06:27:30.582Z,3772.00
2019-04-10T06:28:31.054Z,3808.00
2019-04-10T06:29:30.850Z,3844.00
2019-04-10T06:30:30.522Z,3876.00
2019-04-10T06:31:30.545Z,3896.00
2019-04-10T06:32:31.610Z,3924.00
2019-04-10T06:33:30.475Z,3932.00
2019-04-10T06:34:30.477Z,3964.00
2019-04-10T06:35:30.457Z,3996.00
2019-04-10T06:36:30.444Z,4036.00
2019-04-10T06:37:30.459Z,4088.00
2019-04-10T06:38:30.762Z,4132.00
2019-04-10T06:39:31.053Z,4164.00
2019-04-10T06:40:30.688Z,4204.00
2019-04-10T06:41:30.562Z,4240.00
2019-04-10T06:42:32.684Z,4264.00
2019-04-10T06:43:31.402Z,4280.00
2019-04-10T06:44:30.369Z,4268.00
2019-04-10T06:45:31.485Z,4284.00
2019-04-10T06:46:30.762Z,4312.00
2019-04-10T06:47:30.639Z,4328.00
2019-04-10T06:48:30.352Z,4364.00
2019-04-10T06:49:31.094Z,4412.00
2019-04-10T06:50:31.484Z,4416.00
2019-04-10T06:51:31.277Z,4408.00
2019-04-10T06:52:30.427Z,4416.00
2019-04-10T06:53:31.079Z,4384.00
2019-04-10T06:54:30.993Z,4380.00
2019-04-10T06:55:30.345Z,4400.00
2019-04-10T06:56:31.230Z,4428.00
2019-04-10T06:57:30.558Z,4472.00
2019-04-10T06:58:30.222Z,4520.00
2019-04-10T06:59:30.510Z,4540.00
2019-04-10T07:00:30.690Z,4556.00
2019-04-10T07:01:40.534Z,4568.00
2019-04-10T07:02:33.130Z,4580.00
2019-04-10T07:03:46.487Z,4560.00
2019-04-10T07:04:43.119Z,4564.00
2019-04-10T07:05:39.794Z,4632.00
2019-04-10T07:06:47.116Z,4704.00
2019-04-10T07:07:46.540Z,4776.00
2019-04-10T07:08:31.986Z,4868.00
2019-04-10T07:09:30.209Z,4912.00
2019-04-10T07:10:44.767Z,4912.00
2019-04-10T07:11:32.600Z,4904.00
2019-04-10T07:12:33.515Z,4932.00
2019-04-10T07:13:30.224Z,4972.00
2019-04-10T07:14:30.043Z,4996.00
2019-04-10T07:15:30.037Z,5016.00
2019-04-10T07:16:32.654Z,5040.00
2019-04-10T07:17:30.016Z,5092.00
2019-04-10T07:18:30.012Z,5124.00
2019-04-10T07:19:30.300Z,5164.00
2019-04-10T07:20:29.978Z,5204.00
2019-04-10T07:21:30.778Z,5212.00
2019-04-10T07:22:31.059Z,5216.00
2019-04-10T07:23:31.916Z,5232.00
2019-04-10T07:24:34.477Z,5288.00
2019-04-10T07:25:31.934Z,5268.00
2019-04-10T07:26:37.774Z,5256.00
2019-04-10T07:27:34.674Z,5264.00
2019-04-10T07:28:30.886Z,5216.00
2019-04-10T07:29:30.860Z,5228.00
2019-04-10T07:30:29.971Z,5256.00
2019-04-10T07:31:30.328Z,5268.00
2019-04-10T07:32:29.992Z,5344.00
2019-04-10T07:33:30.792Z,5420.00
2019-04-10T07:34:30.050Z,5480.00
2019-04-10T07:35:33.743Z,5512.00
2019-04-10T07:36:30.804Z,5544.00
2019-04-10T07:37:29.817Z,5556.00
2019-04-10T07:38:30.807Z,5588.00
2019-04-10T07:39:33.225Z,5600.00
2019-04-10T07:40:33.074Z,5620.00
2019-04-10T07:41:31.509Z,5648.00
2019-04-10T07:42:35.255Z,5656.00
2019-04-10T07:43:30.760Z,5664.00
2019-04-10T07:44:29.725Z,5704.00
2019-04-10T07:45:29.730Z,5772.00
2019-04-10T07:46:31.122Z,5824.00
2019-04-10T07:47:29.690Z,5880.00
2019-04-10T07:48:29.675Z,5896.00
2019-04-10T07:49:31.242Z,5916.00
2019-04-10T07:50:30.277Z,5924.00
2019-04-10T07:51:29.887Z,5972.00
2019-04-10T07:52:29.671Z,6020.00
2019-04-10T07:53:29.629Z,6008.00
2019-04-10T07:54:30.802Z,6032.00
2019-04-10T07:55:30.585Z,6072.00
2019-04-10T07:56:29.653Z,6180.00
2019-04-10T07:57:30.706Z,6188.00
2019-04-10T07:58:29.591Z,6212.00
2019-04-10T07:59:29.565Z,6216.00
2019-04-10T08:00:29.545Z,6304.00
2019-04-10T08:01:29.551Z,6256.00
2019-04-10T08:02:29.704Z,6248.00
2019-04-10T08:03:29.511Z,6284.00
2019-04-10T08:04:29.524Z,6368.00
2019-04-10T08:05:29.668Z,6372.00
2019-04-10T08:06:29.487Z,6408.00
2019-04-10T08:07:34.172Z,6400.00
2019-04-10T08:08:30.466Z,6384.00
2019-04-10T08:09:29.447Z,6404.00
2019-04-10T08:10:30.583Z,6440.00
2019-04-10T08:11:29.671Z,6452.00
2019-04-10T08:12:39.473Z,6472.00
2019-04-10T08:13:30.906Z,6488.00
2019-04-10T08:14:29.529Z,6516.00
2019-04-10T08:15:29.525Z,6544.00
2019-04-10T08:16:29.392Z,6564.00
2019-04-10T08:17:30.380Z,6572.00
2019-04-10T08:18:29.632Z,6592.00
2019-04-10T08:19:29.520Z,6572.00
2019-04-10T08:20:30.569Z,6676.00
2019-04-10T08:21:29.518Z,6748.00
2019-04-10T08:22:29.316Z,6816.00
2019-04-10T08:23:30.195Z,6840.00
2019-04-10T08:24:29.324Z,6876.00
2019-04-10T08:25:29.284Z,6996.00
2019-04-10T08:26:30.342Z,7020.00
2019-04-10T08:27:29.915Z,7096.00
2019-04-10T08:28:30.636Z,7120.00
2019-04-10T08:29:30.252Z,7220.00
2019-04-10T08:30:30.027Z,7252.00
2019-04-10T08:31:29.217Z,7276.00
2019-04-10T08:32:30.049Z,7300.00
2019-04-10T08:33:30.188Z,7332.00
2019-04-10T08:34:29.178Z,7340.00
2019-04-10T08:35:29.452Z,7416.00
2019-04-10T08:36:29.690Z,7456.00
2019-04-10T08:37:29.408Z,7484.00
2019-04-10T08:38:30.041Z,7496.00
2019-04-10T08:39:38.752Z,7536.00
2019-04-10T08:40:30.125Z,7548.00
2019-04-10T08:41:29.708Z,7540.00
2019-04-10T08:42:29.097Z,7572.00
2019-04-10T08:43:29.591Z,7644.00
2019-04-10T08:44:29.850Z,7652.00
2019-04-10T08:45:40.539Z,7744.00
2019-04-10T08:46:30.259Z,7712.00
2019-04-10T08:47:29.110Z,7784.00
2019-04-10T08:48:30.446Z,7804.00
2019-04-10T08:49:29.023Z,7808.00
2019-04-10T08:50:30.119Z,7832.00
2019-04-10T08:51:29.015Z,7848.00
2019-04-10T08:52:28.985Z,7876.00
2019-04-10T08:53:28.994Z,7912.00
2019-04-10T08:54:29.019Z,7920.00
2019-04-10T08:55:28.956Z,7980.00
2019-04-10T08:56:30.120Z,8012.00
2019-04-10T08:57:29.770Z,8036.00
2019-04-10T08:58:28.929Z,8040.00
2019-04-10T08:59:29.990Z,8096.00
2019-04-10T09:00:29.019Z,8120.00
2019-04-10T09:01:29.301Z,8124.00
2019-04-10T09:02:28.898Z,8160.00
2019-04-10T09:03:28.868Z,8144.00
2019-04-10T09:04:28.877Z,8184.00
2019-04-10T09:05:29.878Z,8224.00
2019-04-10T09:06:28.832Z,8284.00
2019-04-10T09:07:28.822Z,8336.00
2019-04-10T09:08:28.895Z,8368.00
2019-04-10T09:09:29.821Z,8388.00
2019-04-10T09:10:28.795Z,8416.00
2019-04-10T09:11:30.147Z,8436.00
2019-04-10T09:12:29.610Z,8488.00
2019-04-10T09:13:28.759Z,8536.00
2019-04-10T09:14:29.630Z,8552.00
2019-04-10T09:15:29.830Z,8624.00
2019-04-10T09:16:28.864Z,8668.00
2019-04-10T09:17:28.716Z,8768.00
2019-04-10T09:18:29.517Z,8824.00
2019-04-10T09:19:29.877Z,8812.00
2019-04-10T09:20:28.885Z,8872.00
2019-04-10T09:21:28.676Z,8844.00
2019-04-10T09:22:30.118Z,8856.00
2019-04-10T09:23:37.913Z,8880.00
2019-04-10T09:24:30.081Z,8920.00
2019-04-10T09:25:28.640Z,8896.00
2019-04-10T09:26:28.751Z,8920.00
2019-04-10T09:27:28.974Z,8940.00
2019-04-10T09:28:28.629Z,9008.00
2019-04-10T09:29:28.590Z,9048.00
2019-04-10T09:30:28.962Z,9048.00
2019-04-10T09:31:29.460Z,9032.00
2019-04-10T09:32:28.774Z,9036.00
2019-04-10T09:33:30.784Z,9024.00
2019-04-10T09:34:28.643Z,9000.00
2019-04-10T09:35:28.797Z,8952.00
2019-04-10T09:36:29.154Z,8928.00
2019-04-10T09:37:28.499Z,8948.00
2019-04-10T09:38:28.547Z,8884.00
2019-04-10T09:39:29.536Z,9016.00
2019-04-10T09:40:28.487Z,8992.00
2019-04-10T09:41:28.491Z,9024.00
2019-04-10T09:42:28.458Z,9108.00
2019-04-10T09:43:29.538Z,9100.00
2019-04-10T09:44:28.427Z,9120.00
2019-04-10T09:45:28.555Z,9108.00
2019-04-10T09:46:28.864Z,9116.00
2019-04-10T09:47:28.422Z,9196.00
2019-04-10T09:48:28.383Z,9280.00
2019-04-10T09:49:35.696Z,9316.00
2019-04-10T09:50:29.377Z,9344.00
2019-04-10T09:51:28.347Z,9348.00
2019-04-10T09:52:28.357Z,9368.00
2019-04-10T09:53:28.754Z,9388.00
2019-04-10T09:54:28.320Z,9496.00
2019-04-10T09:55:28.307Z,9760.00
2019-04-10T09:56:28.299Z,9684.00
2019-04-10T09:57:28.718Z,10944.00
2019-04-10T09:58:28.271Z,12216.00
2019-04-10T09:59:35.866Z,11592.00
2019-04-10T10:00:29.938Z,9988.00
2019-04-10T10:01:28.802Z,9804.00
2019-04-10T10:02:28.337Z,9784.00
2019-04-10T10:03:28.253Z,9968.00
2019-04-10T10:04:29.213Z,10104.00
2019-04-10T10:05:28.618Z,10256.00
2019-04-10T10:06:32.104Z,11172.00
2019-04-10T10:07:29.177Z,11032.00
2019-04-10T10:08:28.886Z,10684.00
2019-04-10T10:09:29.243Z,10524.00
2019-04-10T10:10:29.032Z,10164.00
2019-04-10T10:11:28.682Z,10424.00
2019-04-10T10:12:28.145Z,10524.00
2019-04-10T10:13:28.119Z,10528.00
2019-04-10T10:14:28.621Z,10420.00
2019-04-10T10:15:29.143Z,10668.00
2019-04-10T10:16:30.172Z,10956.00
2019-04-10T10:17:28.570Z,11592.00
2019-04-10T10:18:28.078Z,10520.00
2019-04-10T10:19:28.051Z,9548.00
2019-04-10T10:20:29.208Z,10512.00
2019-04-10T10:21:28.356Z,10292.00
2019-04-10T10:22:28.009Z,10848.00
2019-04-10T10:23:28.001Z,11616.00
2019-04-10T10:24:28.877Z,12312.00
2019-04-10T10:25:28.915Z,12004.00
2019-04-10T10:26:28.211Z,11704.00
2019-04-10T10:27:27.979Z,12224.00
2019-04-10T10:28:29.112Z,11328.00
2019-04-10T10:29:28.123Z,11144.00
2019-04-10T10:30:27.927Z,11056.00
2019-04-10T10:31:28.466Z,11196.00
2019-04-10T10:32:28.930Z,11704.00
2019-04-10T10:33:27.981Z,11384.00
2019-04-10T10:34:28.281Z,11156.00
2019-04-10T10:35:27.878Z,11068.00
2019-04-10T10:36:36.668Z,11248.00
2019-04-10T10:37:28.871Z,11384.00
2019-04-10T10:38:27.872Z,11944.00
2019-04-10T10:39:28.578Z,12936.00
2019-04-10T10:40:27.835Z,13292.00
2019-04-10T10:41:27.804Z,13216.00
2019-04-10T10:42:27.823Z,14248.00
2019-04-10T10:43:28.815Z,15952.00
2019-04-10T10:44:27.951Z,16532.00
2019-04-10T10:45:28.988Z,15212.00
2019-04-10T10:46:27.758Z,15252.00
2019-04-10T10:47:29.066Z,15312.00
2019-04-10T10:48:27.752Z,13908.00
2019-04-10T10:49:28.584Z,11992.00
2019-04-10T10:50:28.922Z,13676.00
2019-04-10T10:51:28.892Z,13172.00
2019-04-10T10:52:27.844Z,13180.00
2019-04-10T10:53:28.275Z,11844.00
2019-04-10T10:54:27.926Z,12016.00
2019-04-10T10:55:27.656Z,12320.00
2019-04-10T10:56:28.622Z,12092.00
2019-04-10T10:57:27.658Z,11776.00
2019-04-10T10:58:27.972Z,12100.00
2019-04-10T10:59:27.644Z,13080.00
2019-04-10T11:00:27.649Z,13664.00
2019-04-10T11:01:27.642Z,12636.00
2019-04-10T11:02:27.734Z,12600.00
2019-04-10T11:03:27.589Z,12632.00
2019-04-10T11:04:27.561Z,12744.00
2019-04-10T11:05:30.343Z,13460.00
2019-04-10T11:06:27.537Z,14408.00
2019-04-10T11:07:28.733Z,14508.00
2019-04-10T11:08:27.520Z,13296.00
2019-04-10T11:09:28.509Z,12124.00
2019-04-10T11:10:27.697Z,12728.00
2019-04-10T11:11:28.238Z,13988.00
2019-04-10T11:12:28.081Z,14324.00
2019-04-10T11:13:27.475Z,14404.00
2019-04-10T11:14:27.754Z,12632.00
2019-04-10T11:15:27.855Z,14120.00
2019-04-10T11:16:27.444Z,29344.00
2019-04-10T11:17:28.224Z,42304.00
2019-04-10T11:18:28.549Z,52320.00
2019-04-10T11:19:27.399Z,46272.00
2019-04-10T11:20:28.085Z,41792.00
2019-04-10T11:21:27.512Z,40416.00
2019-04-10T11:22:27.373Z,41952.00
2019-04-10T11:23:28.454Z,42624.00
2019-04-10T11:24:27.342Z,45792.00
2019-04-10T11:25:28.652Z,39200.00
2019-04-10T11:26:27.651Z,22784.00
2019-04-10T11:27:28.070Z,23296.00
2019-04-10T11:28:30.218Z,26048.00
2019-04-10T11:29:27.293Z,22432.00
2019-04-10T11:30:28.605Z,19104.00
2019-04-10T11:31:27.270Z,19872.00
2019-04-10T11:32:28.872Z,16856.00
2019-04-10T11:33:27.324Z,17152.00
2019-04-10T11:34:29.079Z,15220.00
2019-04-10T11:35:27.249Z,13940.00
2019-04-10T11:36:28.214Z,14120.00
2019-04-10T11:37:37.328Z,13832.00
2019-04-10T11:38:29.060Z,14452.00
2019-04-10T11:39:29.376Z,14920.00
2019-04-10T11:40:27.981Z,16380.00
2019-04-10T11:41:29.517Z,15388.00
2019-04-10T11:42:28.821Z,16092.00
2019-04-10T11:43:27.902Z,16492.00
2019-04-10T11:44:28.107Z,18304.00
2019-04-10T11:45:29.121Z,22688.00
2019-04-10T11:46:31.400Z,41408.00
2019-04-10T11:47:29.022Z,60864.00
2019-04-10T11:48:29.094Z,59424.00
2019-04-10T11:49:27.796Z,65280.00
2019-04-10T11:50:28.573Z,71040.00
2019-04-10T11:51:30.264Z,72288.00
2019-04-10T11:52:33.801Z,66176.00
2019-04-10T11:53:28.527Z,62208.00
2019-04-10T11:54:29.904Z,51456.00
2019-04-10T11:55:27.849Z,35744.00
2019-04-10T11:56:30.146Z,20992.00
2019-04-10T11:57:30.207Z,14892.00
2019-04-10T11:58:29.030Z,15748.00
2019-04-10T11:59:28.952Z,15040.00
2019-04-10T12:00:30.121Z,15880.00
2019-04-10T12:01:28.053Z,13336.00
2019-04-10T12:02:28.272Z,12776.00
2019-04-10T12:03:27.231Z,12924.00
2019-04-10T12:04:29.524Z,13764.00
2019-04-10T12:05:29.137Z,14524.00
2019-04-10T12:06:30.921Z,16352.00
2019-04-10T12:07:55.064Z,17600.00
2019-04-10T12:08:50.206Z,19904.00
2019-04-10T12:11:28.610Z,14564.00
2019-04-10T12:12:27.942Z,14496.00
2019-04-10T12:13:26.826Z,14728.00
2019-04-10T12:14:27.883Z,15264.00
2019-04-10T12:15:26.800Z,16460.00
2019-04-10T12:16:27.265Z,21952.00
2019-04-10T12:17:27.726Z,19104.00
2019-04-10T12:18:26.833Z,17536.00
2019-04-10T12:19:27.010Z,14860.00
2019-04-10T12:20:27.104Z,15364.00
2019-04-10T12:21:26.750Z,12652.00
2019-04-10T12:22:27.486Z,12916.00
2019-04-10T12:23:27.226Z,11968.00
2019-04-10T12:24:26.705Z,11836.00
2019-04-10T12:25:27.120Z,12112.00
2019-04-10T12:26:27.613Z,12412.00
2019-04-10T12:27:27.349Z,12680.00
2019-04-10T12:28:27.715Z,12932.00
2019-04-10T12:29:26.815Z,13768.00